events-overview

Kinetic Sprint

 

Overall Men

Lake Anna State Park - Spotsylvania, VA 5/13/2012 09:00AM

** Results are for the private use of participants and are the Intellectual Property of Set Up Events. Unauthorized use of these results is prohibited.

Place Bib Ag S NAME city/state DQ Rank SWIM Rank T1 Rank BIKE Rank T2 Rank RUN PENALTY TIME DQ
1231MMichael HarlowRichmond VA 600:10:05100:01:12500:44:03100:00:33300:17:41 01:13:32 
2122MGrayson CobbBlacksburg VA 1000:10:35200:01:15300:43:31400:00:34200:17:40 01:13:34 
38630MMichael PhinneyYardley PA 300:09:332100:01:45400:43:591100:00:391100:19:02 01:14:57 
47448MGlenn OxfordFredericksburg VA 4000:12:172600:01:49100:41:317700:01:02900:18:41 01:15:19 
58441MJay PelusoRichmond VA 200:09:312200:01:45600:44:031200:00:393300:20:51 01:16:48 
6319MRyan PetersonRichmond VA 500:10:03300:01:162200:47:24500:00:36500:18:01 01:17:18 
747541MEddie HillHomer NY 2400:11:492500:01:49900:44:551500:00:42700:18:12 01:17:25 
829840MThomas BouberCharlottesville VA 1600:11:01900:01:34700:44:064000:00:522400:20:26 01:17:58 
912539MDerek RussellVirginia Beach VA 400:09:331400:01:411800:46:383800:00:512200:20:18 01:18:58 
1043730MSean GordonArlington VA 4100:12:171300:01:371400:46:051600:00:421200:19:04 01:19:45 
115335MAlan MossKing George VA 1700:11:075800:02:10800:44:408800:01:044000:21:06 01:20:06 
1258533MAlvaro De La CuevaArlington VA 3500:12:07700:01:301600:46:21300:00:341800:19:52 01:20:23 
1358643MJim Fisher  3300:12:05800:01:321000:45:273900:00:512600:20:31 01:20:25 
1426726MMatthew BalderstonNorfolk VA 900:10:331200:01:372100:47:18900:00:383000:20:47 01:20:51 
1557845MJohn FitzgeraldChesapeake VA 6400:13:11600:01:301300:45:57600:00:372100:20:09 01:21:21 
16424MMax BernardesKing George VA 100:09:232700:01:494100:49:471300:00:411600:19:50 01:21:29 
173042MJohn McGarvaMechanicsville VA 3100:12:039500:02:30200:43:262700:00:4810400:23:26 01:22:11 
1816721MBobby StanleyBerryville VA 2500:11:502800:01:504200:49:49700:00:37600:18:08 01:22:12 
1931743MStefan BruendermannChesapeake VA 2700:11:541700:01:431100:45:302000:00:468000:22:31 01:22:21 
2029038MDerek BirdBurke VA 1400:10:543000:01:512800:48:303700:00:502300:20:23 01:22:26 
2126329MBrian BachorArlington VA 4600:12:273500:01:541700:46:2711600:01:113200:20:49 01:22:46 
2251919MDane KingDeWitt VA 5800:13:00500:01:291500:46:144900:00:555500:21:37 01:23:14 
2317839MBrian TaddikenArlington VA 5000:12:376900:02:182300:47:431000:00:381900:20:01 01:23:15 
246140MSteve NadeauMontreal XX 4800:12:352300:01:481900:46:544300:00:546600:21:58 01:24:08 
257555MJeff OxmanRockville MD 2200:11:273200:01:532500:48:1312900:01:175600:21:38 01:24:27 
2611133MJeff RodgersWashington DC 1800:11:0816900:03:083800:49:387200:01:011500:19:43 01:24:36 
2748625MLarry HutchinsonTemple Hills MD 10300:14:141100:01:364500:50:133500:00:49400:17:53 01:24:43 
2821428MRyan WernerWashington DC 4400:12:233100:01:533500:49:186300:00:593100:20:48 01:25:19 
2947232MJoey HessFredericksburg VA 1100:10:355500:02:0810400:52:4813200:01:18800:18:32 01:25:20 
3019136MJesse TubbSavage MD 8800:13:528300:02:232600:48:1317800:01:291400:19:31 01:25:26 
PlaceBibAgSNAMEcity/stateDQRankSWIMRankT1RankBIKERankT2RankRUNPENALTYTIMEDQ
3136621MAlex DavidRichmond VA 2600:11:531900:01:453200:48:512100:00:467100:22:18 01:25:31 
3210234MPhil ReutlingerAlexandria VA 6000:13:0416700:03:077100:51:193300:00:49100:17:18 01:25:34 
3320836MJason WeberArlington VA 8700:13:5111200:02:373100:48:4918200:01:301000:18:50 01:25:36 
349526MMatthew PughChesterfield VA 9600:14:051600:01:423400:49:043600:00:502000:20:03 01:25:42 
3519437MSimon UrryQuantico VA 7600:13:282900:01:512000:47:161400:00:418100:22:34 01:25:48 
3623332MScott YatesWashington DC 3400:12:056100:02:132700:48:1515300:01:226400:21:55 01:25:48 
3711239MEric RodkinSilver Spring MD 6900:13:1815400:03:003300:48:536900:01:001700:19:51 01:26:01 
3815844MCory SmithWinchester VA 20200:17:072000:01:451200:45:546800:01:002700:20:35 01:26:20 
3954536MMonte LewisMontgomery Village MD 7000:13:194600:02:002900:48:349300:01:055300:21:34 01:26:30 
4043951MDougal GowAlexandria VA 4200:12:205400:02:085100:50:263400:00:495700:21:38 01:27:19 
4150140MErdem KarakoyluSolomons MD            01:27:29 
4255751MJohn LysherFredericksburg VA 3900:12:1210400:02:343000:48:3714000:01:199300:22:53 01:27:33 
4338243MDouglas DudgeonStafford VA 1300:10:518500:02:244300:49:5422400:01:568800:22:43 01:27:45 
442941MTrey McFerrenRichmond VA 8100:13:4211100:02:373600:49:265800:00:583800:21:05 01:27:46 
4548226MJustin HorrellLigonier PA 4700:12:307500:02:208500:51:456200:00:594500:21:12 01:28:44 
46949MEric MackemReston VA 6300:13:0811700:02:404000:49:417000:01:017200:22:22 01:28:49 
475645MThom MukriLorton VA 12900:14:551800:01:444400:50:014600:00:554800:21:22 01:28:55 
4834029MAdam ChaneyRuther Glenn VA 10000:14:1015900:03:024700:50:182900:00:483700:21:04 01:29:20 
4913630MMatthew SchweitzerLorton VA 2900:11:571500:01:4211800:53:454100:00:524300:21:09 01:29:23 
5048847MEric IacobucciAlexandria VA 6500:13:118800:02:258900:51:509200:01:053400:21:01 01:29:30 
5143432MBrett GombarBlacksburg VA 1500:10:566300:02:1410100:52:3910400:01:088700:22:42 01:29:37 
521240MEric MalinowskiNorfolk VA 5400:12:528900:02:266100:50:5210100:01:067300:22:24 01:29:38 
5328535MTim BerryBeclkey WV 7100:13:214500:02:004600:50:166600:01:009900:23:16 01:29:50 
5441724MKris FugateRichmond VA 16300:15:33400:01:236700:51:082600:00:474200:21:08 01:29:57 
557852MAndrew PalowitchMcLean VA 15700:15:295100:02:052400:48:116100:00:5910200:23:25 01:30:08 
5653540MRobert LeamonWashington DC 3600:12:093700:01:568800:51:4922900:01:587900:22:31 01:30:21 
5730051MJeff BowersAshburn VA 13200:14:5813800:02:484900:50:2115200:01:223900:21:06 01:30:34 
5835230MRyan ConnorWashington DC 800:10:274400:02:0010900:53:0112300:01:1511800:24:00 01:30:40 
596632MDavid NicholsonWashington DC 10200:14:1313700:02:477000:51:167500:01:025200:21:33 01:30:49 
6026944MCharles BarnesVienna VA 16900:15:3715000:02:565900:50:515600:00:582900:20:38 01:30:58 
6119250MGreg TuckMechanicsville VA 15400:15:2714200:02:515000:50:229600:01:054600:21:15 01:31:00 
PlaceBibAgSNAMEcity/stateDQRankSWIMRankT1RankBIKERankT2RankRUNPENALTYTIMEDQ
6242916MAdam GlymphChesterfield VA 2100:11:254200:01:5812200:53:502300:00:469500:23:04 01:31:02 
6334933MBrandon CogswellColumbus OH 7900:13:3412500:02:436900:51:1312600:01:167600:22:27 01:31:12 
6432030MRobert BurkWashington DC 6700:13:165600:02:0911000:53:0216000:01:235100:21:33 01:31:20 
6515550MScott SmallwoodArlington VA 14200:15:1114600:02:536600:51:0511700:01:123600:21:02 01:31:21 
6610943MJames RoachChesterfield VA 16500:15:345000:02:053900:49:394800:00:559800:23:15 01:31:26 
6714350MTodd SerresSpringfield VA 8300:13:4312600:02:434800:50:197900:01:0311200:23:43 01:31:29 
6831530MJustin BrownAlexandria VA 11000:14:314800:02:0210000:52:341800:00:456500:21:57 01:31:48 
6950039MVedat KaplanFrederick MD 8000:13:403800:01:566500:51:051700:00:4312700:24:29 01:31:51 
7035634MJoseph CoyneWashington DC 16000:15:317700:02:218000:51:357400:01:025000:21:27 01:31:53 
718836MJustin PierceWoodbridge VA 21300:17:412400:01:483700:49:377800:01:035900:21:46 01:31:53 
7236351MLars DahlStafford VA 7700:13:299000:02:277900:51:335400:00:5710900:23:37 01:32:01 
7343043MEric GlymphChesterfield VA 12300:14:474300:01:596400:50:578600:01:0410100:23:18 01:32:03 
7445536MWilliam HancockWashington DC 7500:13:264900:02:047600:51:2717200:01:2711100:23:42 01:32:04 
7537738MJames DillonChesterfield VA 13800:15:045900:02:117500:51:258100:01:037400:22:25 01:32:05 
7616346MRichard SpencerFairfax VA 1900:11:1317300:03:1110200:52:4113800:01:1911500:23:52 01:32:14 
7730360MSteve BradleyPurcellville VA 12700:14:493900:01:567400:51:239700:01:069400:23:03 01:32:15 
7821531MTim WestrichWashington DC 13100:14:5711300:02:388400:51:4411200:01:106000:21:51 01:32:18 
7932538MDavid Callaway JrStafford VA 8200:13:427400:02:199700:52:177600:01:029700:23:04 01:32:23 
803832MAndrew MerrittCulpeper VA 17400:15:4913500:02:4612100:53:4710500:01:081300:19:19 01:32:48 
8154636MThomas LewisWashington DC 15000:15:208200:02:235500:50:4020400:01:448900:22:45 01:32:49 
8234327MBrian ClarkSterling VA 16400:15:3310300:02:3410500:52:4914300:01:202800:20:37 01:32:51 
8345845MT HarrisCharlottesville VA 4900:12:3614300:02:525700:50:485700:00:5815600:25:40 01:32:53 
8446241MJohn HegeleBeckley WV 13500:15:029100:02:289300:51:574500:00:558200:22:34 01:32:54 
8527653MTerry BashamDumfries VA 15300:15:276400:02:1610800:52:5910700:01:084100:21:07 01:32:55 
8646525MBrandon HendricksonStafford VA 4500:12:273400:01:5313200:54:422400:00:4610000:23:16 01:33:02 
8744640MKevin GreenGaithersburg MD 9900:14:0811500:02:395600:50:4513000:01:1812800:24:30 01:33:17 
8820740MJeff WebbArlington VA 6200:13:049600:02:319100:51:535900:00:5814000:24:54 01:33:19 
8913836MChad SearleArlington VA 13700:15:035200:02:067300:51:228700:01:0411400:23:47 01:33:20 
9013540MMatthew SchwabelBarboursville VA 18800:16:3611400:02:388200:51:379800:01:064900:21:26 01:33:21 
9121850MLee WhiteRichmond VA 5700:12:596800:02:187800:51:289100:01:0515700:25:44 01:33:32 
9211046MDon RodgersSandston VA 9800:14:089900:02:3210700:52:5513600:01:188600:22:40 01:33:32 
PlaceBibAgSNAMEcity/stateDQRankSWIMRankT1RankBIKERankT2RankRUNPENALTYTIMEDQ
9319029MAndrew TruebloodWashington DC 7300:13:2212300:02:4211200:53:115200:00:5610600:23:30 01:33:39 
9451316MJake KendrickManassas VA 3200:12:033600:01:5513600:55:032500:00:4711700:23:56 01:33:41 
9532948MCraig CantrellKing George VA 19900:16:593300:01:537700:51:285100:00:568400:22:38 01:33:52 
9618349MJohn ThomasNorfolk VA 14000:15:0611000:02:369400:52:1016700:01:258300:22:38 01:33:53 
9752329MNick KleinschmidtArlington VA 9300:14:019400:02:306300:50:5616200:01:2414500:25:11 01:34:00 
9824235MBilal ZiaWashington DC 19000:16:467800:02:219200:51:5619900:01:425400:21:35 01:34:17 
9934626MJohn ClossArlington VA 700:10:148100:02:2212300:53:5410800:01:0917900:26:40 01:34:18 
10030735MStewart BraunCharlottesville VA 6800:13:1714700:02:5313400:54:5511100:01:107000:22:16 01:34:30 
10137559MChris DettmarReston VA 11400:14:3619000:03:215800:50:4916100:01:2313000:24:35 01:34:44 
10249742MJames JohnstonFairfax Station VA 11900:14:4212100:02:4111900:53:468500:01:048500:22:40 01:34:51 
10331224MMichael BroganNorfolk VA 1200:10:4313200:02:4513900:55:076700:01:0015500:25:38 01:35:11 
10412649MGeorge SabolVirginia Beach VA 19500:16:524700:02:028600:51:474700:00:5511000:23:42 01:35:16 
10525951MAlan ArrudaWilliamsburg VA 10600:14:257300:02:196000:50:5220900:01:4716200:26:00 01:35:20 
10627258MDennis BarrRidge MD 15900:15:304000:01:576800:51:095500:00:5716000:25:59 01:35:30 
10717735MJohn TaberskiAlexandria VA 21400:17:446700:02:188700:51:4914600:01:217500:22:27 01:35:36 
10848032MDaniel HoefertLa Plata MD 3000:12:0017200:03:1010300:52:4422200:01:5516300:26:00 01:35:47 
1097142MPatrick OneillFairfax VA 14100:15:115700:02:1014300:55:219400:01:056900:22:12 01:35:57 
11041255MBen FoyMurrysville PA 14300:15:1217000:03:085400:50:3824200:02:0414100:25:00 01:36:00 
11110132MPatrick ReillyWashington DC 10900:14:3012200:02:4214900:55:516500:01:006700:22:01 01:36:02 
11213450MIra SchulmanCharlottesville VA 13000:14:5710500:02:348100:51:357100:01:0116800:26:05 01:36:10 
11342644MFrederick GersonRichmond VA 19600:16:5414100:02:505300:50:3313700:01:1913300:24:40 01:36:14 
11433534MJohn CasillArlignton VA 10800:14:2915100:02:5815100:56:029500:01:056200:21:51 01:36:24 
11527949MLeonard BechtelArlington VA 7800:13:3110100:02:3312000:53:4718100:01:3014300:25:07 01:36:27 
1162131MSam MasseyFredericksburg VA 5300:12:518000:02:2213300:54:5420500:01:4413400:24:43 01:36:33 
1176948MMichael OconnorArlington VA 7200:13:2218900:03:219900:52:2814500:01:2116900:26:05 01:36:35 
1187649MKen PakulaAlexandria VA 3700:12:094100:01:5712600:54:0418800:01:3518100:26:57 01:36:39 
1196744MPaul NovakApex NC 8500:13:4819800:03:286200:50:5319800:01:4218400:27:01 01:36:50 
12050444MTimothy KauszlerNewport News VA 6600:13:1511600:02:3912900:54:2121300:01:4813800:24:50 01:36:51 
12150241MDavid KarasikRockville MD 17800:15:5712000:02:4011100:53:088200:01:0412300:24:06 01:36:52 
12226115MMatt AsperHaymarket VA 17100:15:4322000:03:5215300:56:0512500:01:162500:20:27 01:37:21 
12348427MCorey HumburgBumpass VA 9000:13:557900:02:2119700:59:16200:00:344700:21:18 01:37:22 
PlaceBibAgSNAMEcity/stateDQRankSWIMRankT1RankBIKERankT2RankRUNPENALTYTIMEDQ
12451145MCharles KendallOak Hill VA 12500:14:4816600:03:0711400:53:3124300:02:0611600:23:55 01:37:24 
12541632MBrad FreySterling VA 10700:14:2511800:02:4010600:52:5413300:01:1817400:26:19 01:37:35 
12619726MKyle VanderpoolCentreville VA 2800:11:545300:02:0720500:59:592800:00:489000:22:49 01:37:36 
1274343MMark MillerArlington VA 9100:13:578700:02:259800:52:2810900:01:0920200:27:39 01:37:36 
12850743MBob KellerWilliamsburg VA 8600:13:5010600:02:3511600:53:3715700:01:2317700:26:23 01:37:46 
1291633MSam ManessArlington VA 14400:15:1310700:02:3513700:55:0415000:01:2210800:23:36 01:37:49 
13035126MDavid ColmanArlington VA 24300:19:0316800:03:0711700:53:416000:00:593500:21:02 01:37:50 
13111830MJean RosadoWashington DC 10500:14:2220900:03:4117400:57:23800:00:386300:21:54 01:37:57 
13211343MCarlos RodriguezWheaton MD 12200:14:466500:02:1615700:56:1114100:01:2011300:23:44 01:38:15 
13315139MBrian SimpsonAlexandria VA 11100:14:3120000:03:2915400:56:0613400:01:1810700:23:31 01:38:55 
13420339MTim WalkawiczNorfolk VA 5200:12:4823100:04:007200:51:2221800:01:5218200:26:5700:02:0001:38:58 
1359949MRj RedstromPowhatan VA 13900:15:0410800:02:3513000:54:285300:00:5616700:26:03 01:39:04 
13634841MBrett CoffeeBurke VA 17600:15:5317700:03:135200:50:3218000:01:3020600:28:00 01:39:05 
13713237MNorm SchleifAnnandale VA 17500:15:519200:02:2914400:55:2711800:01:1212500:24:26 01:39:23 
13821237MJoe WeinsteinWashington DC 5500:12:579800:02:3217900:57:3717500:01:2813900:24:54 01:39:26 
13910540MChad RicknerChesapeake VA 18600:16:356600:02:1714800:55:503000:00:4811900:24:01 01:39:30 
1403432MTimmothy McShaneWashington DC 12100:14:4512700:02:449600:52:1217300:01:2721400:28:31 01:39:37 
1413962MBrad MetcalfRichmond VA 15200:15:267100:02:1814200:55:2122500:01:5713600:24:46 01:39:46 
14241932MDrew GaiblerArlington VA 21600:17:4618600:03:1912400:54:0119700:01:419600:23:04 01:39:49 
14353634MJason LeblancArlington VA 16200:15:317200:02:1914500:55:2910300:01:0715400:25:35 01:39:58 
14423459MCurtis YeeWashington DC 12800:14:5013600:02:4714600:55:3016800:01:2515100:25:31 01:40:00 
14542468MDavid GearinArlington VA 18000:16:0418500:03:188300:51:4220000:01:4219300:27:23 01:40:07 
14635462MDavid ConoverGreat Falls VA 11800:14:421000:01:3512800:54:1719100:01:3720900:28:03 01:40:11 
14724147MDavid ZemoCulpeper VA 13600:15:0310200:02:3311300:53:124200:00:5421600:28:37 01:40:17 
14844440MEric GreenWashington DC 22200:17:5716500:03:0515800:56:1415600:01:235800:21:44 01:40:20 
14920942MMichael WeberVirginia Beach VA 8400:13:4716300:03:0216100:56:289900:01:0616500:26:02 01:40:23 
15015618MTyler SmallwoodArlington VA 11500:14:3921400:03:4618600:58:0721900:01:536800:22:04 01:40:27 
15155329MSteven LongBethesda MD 9500:14:0314800:02:5416700:56:446400:00:5915900:25:58 01:40:36 
15228640MJason BertschWashington DC 9400:14:0319100:03:2216300:56:3621100:01:4714200:25:01 01:40:47 
15312233MJames RowellLeesburg VA 21700:17:468600:02:259500:52:119000:01:0419500:27:24 01:40:49 
15454251MBrian LeonardOak Hill VA 15500:15:2818700:03:2015500:56:1021500:01:5012100:24:04 01:40:50 
PlaceBibAgSNAMEcity/stateDQRankSWIMRankT1RankBIKERankT2RankRUNPENALTYTIMEDQ
15552552MDonald KnutsonLeesburg VA 4300:12:2118800:03:2018900:58:1219000:01:3715000:25:25 01:40:53 
15652138MJeremy KlassWashington DC 15100:15:2117900:03:1417000:56:5117700:01:2912200:24:05 01:40:57 
1574527MJavier MontenegroHyattsville MD 22500:18:026000:02:1216800:56:4711900:01:129200:22:51 01:41:02 
1586433MTim NewkirkHagerstown MD 16800:15:3619300:03:2219300:58:3014700:01:217700:22:29 01:41:16 
15959428MTim PoteStafford VA 6100:13:0418200:03:1518100:57:4712200:01:1316600:26:02 01:41:19 
16032629MAndrew CallihanRichmond VA 20700:17:2913900:02:4912700:54:1025000:02:1813500:24:45 01:41:29 
1616353MAl NavidiRockville MD 25600:20:1516000:03:029000:51:5012000:01:1315300:25:34 01:41:52 
1625830MIsiah MunozWashington DC 18900:16:4213300:02:4520300:59:5416600:01:254400:21:11 01:41:55 
16330838MSean BrazielBurke VA 16600:15:3417600:03:1311500:53:3515400:01:2221200:28:27 01:42:09 
1641849MDan MarvinCentreville VA 17900:15:587000:02:1818700:58:083200:00:4914400:25:08 01:42:19 
16541138MDan FowlerArlington VA 20100:17:0112800:02:4419400:58:5810200:01:069100:22:49 01:42:37 
16638845MBret ElliottMidlothian VA 15800:15:2913100:02:4513500:54:5820800:01:4720800:28:03 01:43:00 
1672432MJohn MatlockArlington VA 11200:14:3215200:03:0017600:57:2516400:01:2418300:27:00 01:43:19 
16859929MCarl FudgeWashington DC 11300:14:3410900:02:3619100:58:288000:01:0318000:26:46 01:43:26 
16938550MTim EichhornSpringfield VA 14700:15:1517400:03:1216000:56:1817400:01:2714900:25:2300:02:0001:43:33 
17032251MBrian BushickAlexandria VA 19200:16:4611900:02:4013100:54:3124100:02:0420100:27:37 01:43:35 
17118528MJames ThompsonBland VA 18700:16:3518300:03:1614700:55:4723000:01:5916400:26:00 01:43:36 
17224616MMike AdamsVirginia Beach VA 2000:11:1910000:02:3217100:56:5216500:01:2424800:31:32 01:43:39 
17341033MDavid FosterMcLean VA 5900:13:037600:02:2023101:01:5514200:01:2014600:25:14 01:43:50 
1749647MNeil RamsayVirginia Beach VA 13400:15:018400:02:2417500:57:2418500:01:3120700:28:02 01:44:21 
1759340MKip PrestholdtAlexandria VA 5600:12:5920800:03:4017300:57:1313100:01:1823300:29:17 01:44:24 
17653437MAaron LaroseAlexandria VA 16700:15:3423500:04:0614000:55:1014400:01:2017600:26:2300:02:0001:44:31 
17758840MJay CochranMontgomery Village MD 25200:19:4622300:03:5412500:54:0425300:02:1913200:24:38 01:44:38 
17819344MDan TwomeyDover NH 23200:18:279700:02:3115000:55:542200:00:4618900:27:12 01:44:49 
17950551MChris KavanaghVienna VA 18300:16:1924300:04:2314100:55:1424400:02:0618600:27:05 01:45:06 
1808251MKenneth PearceMechanicsville VA 11600:14:3912400:02:4216200:56:3519400:01:4019900:27:3200:02:0001:45:06 
18149234MShawn JarvisChesapeake VA 17000:15:4116200:03:0221001:00:2918400:01:3112900:24:31 01:45:13 
18250818MAustin KendallOak Hill VA 10100:14:1215300:03:0023701:02:3013900:01:1912600:24:28 01:45:27 
18348732MJp HylandWashington DC 18200:16:1925500:04:4417700:57:2922000:01:5314800:25:23 01:45:46 
18447739MNicholas HillTakoma Park MD            01:45:50 
18517052MJim SteinArlington VA 14600:15:1412900:02:4420600:59:5922600:01:5817200:26:14 01:46:07 
PlaceBibAgSNAMEcity/stateDQRankSWIMRankT1RankBIKERankT2RankRUNPENALTYTIMEDQ
18652044MThomas KingCentreville VA 9200:14:0016100:03:0219900:59:268300:01:0421800:28:42 01:46:12 
18726548MAndrew BaillieNokesville VA 23700:18:4624000:04:1816400:56:3719500:01:4014700:25:20 01:46:40 
18843345MDavid GogolkiewiczManassas VA 11700:14:4024900:04:3019200:58:2922700:01:5818800:27:12 01:46:48 
18952461MMark KlineArlington VA 20900:17:3014400:02:5218400:57:558900:01:0419800:27:29 01:46:49 
1906049MDennis MyersChesapeake VA 16100:15:3117500:03:1218000:57:4617900:01:2919000:27:1600:02:0001:47:12 
19111655MChuck RomeoRockville MD 21100:17:3725300:04:3915600:56:1021200:01:4818700:27:07 01:47:19 
19222032MDan WileyWashington DC 17700:15:5423200:04:0120000:59:3126800:03:1413700:24:47 01:47:24 
19359829MKevin MillerCentreville VA 24000:18:5418100:03:1420100:59:464400:00:5513100:24:37 01:47:24 
19425436MJordan ApplebaumHerndon VA 23000:18:2319600:03:2721301:00:4512700:01:1612000:24:03 01:47:53 
19558034MDaniel FitzpatrickAnnandale VA 13300:14:5919200:03:2222801:01:4319200:01:3917300:26:15 01:47:56 
19628831MEarl BiglowWashington DC 18100:16:0920700:03:3722501:01:0826200:02:4612400:24:18 01:47:57 
19711545MTim RohrbaughHaywood VA 20500:17:2114900:02:5415900:56:1717600:01:2823700:30:14 01:48:12 
1985445MAndrew MoyerCrofton MD 22800:18:2023900:04:1519000:58:2421000:01:4715200:25:32 01:48:16 
19928336MMark BekkeringDc DC 22400:18:0114500:02:5217200:57:0715900:01:2323200:29:10 01:48:31 
20042534MSteven GentileArlington VA 14500:15:1417800:03:1323601:02:2816900:01:2617500:26:21 01:48:41 
20126638MMichael BakerGreencastle PA 22100:17:5519500:03:2616500:56:3820100:01:4322800:29:06 01:48:47 
20237054MScott DawleyCulpeper VA 21800:17:4822500:03:5518200:57:4823600:02:0120300:27:45 01:49:15 
2039842MCorey RankinManassas VA 19700:16:5520600:03:3723401:02:1411300:01:1015800:25:55 01:49:49 
20415943MMichael SmithAlexandria VA 9700:14:0621200:03:4522901:01:5321600:01:5121700:28:38 01:50:11 
20510033MIsaac ReeseFalls Church VA 25900:20:4819900:03:2921101:00:3323400:01:5910300:23:26 01:50:13 
20632349MGlenn ByrdWoodbine MD 12600:14:4926500:05:2020200:59:4820200:01:4322300:28:56 01:50:35 
20732452MDavid CalicoAlexandria VA 20800:17:3019400:03:2316900:56:4821700:01:5124300:31:09 01:50:39 
2089245MOliver PottsArlington VA 24900:19:2518400:03:1722001:00:575000:00:5617000:26:11 01:50:44 
20941335MCarl FrankenfieldPortsmouth VA 19400:16:4927400:08:1315200:56:0425600:02:2119600:27:25 01:50:49 
21018731MMichael ToddRichmond VA 12400:14:4724200:04:1922301:01:0715100:01:2219200:27:2300:02:0001:50:55 
21128227MRobel BekeleWashington DC 21900:17:5021900:03:5123001:01:5416300:01:2417800:26:30 01:51:25 
21233150MRich CarlsonChantilly VA 26500:21:5521300:03:4620901:00:0224900:02:1610500:23:28 01:51:26 
21336540MMarvin DarnellManassas VA 21000:17:3322200:03:5316600:56:3915800:01:2325200:32:15 01:51:41 
2146854MBob OconnorWake Forest NC 19800:16:5922600:03:5617800:57:3524800:02:1322500:29:0300:02:0001:51:44 
21538644MEric EldridgeCentreville VA 22900:18:2024100:04:1822601:01:1620300:01:4417100:26:12 01:51:48 
21658752MMk StewartRichmond VA 10400:14:1918000:03:1421201:00:3718900:01:3623500:30:0600:02:0001:51:50 
PlaceBibAgSNAMEcity/stateDQRankSWIMRankT1RankBIKERankT2RankRUNPENALTYTIMEDQ
21745050MBob GrunewaldChevy Chase MD 23600:18:4515700:03:0020400:59:5818300:01:3022100:28:49 01:52:01 
21829637MJeff BorekWoodbridge VA 23100:18:2620100:03:3322201:01:0622100:01:5319400:27:24 01:52:20 
21935948MDonald CronceFredericksburg VA 26400:21:5020200:03:3318500:58:011900:00:4621300:28:27 01:52:35 
22027142MJohn BarnesManakin Sabot VA 24700:19:2413400:02:4621801:00:5315500:01:2223000:29:09 01:53:33 
22152253MScott KlecknerHerndon VA 21500:17:4526800:05:2822701:01:1917000:01:2620500:27:46 01:53:43 
2227041MWilliam OliverMechanicsville VA 5100:12:4126300:05:1421701:00:5123900:02:0425700:32:57 01:53:46 
22346440MGregory HeideAlexandria VA 18500:16:3320400:03:3423501:02:2425700:02:2322900:29:08 01:54:01 
22455050MMatthew LitchfieldWarrenton VA 27000:22:4321800:03:5013800:55:0523300:01:5924200:30:49 01:54:23 
22522938MJustin WoodLorton VA 20400:17:1625100:04:3819500:59:0023200:01:5924900:31:36 01:54:26 
22645340MBill HallAlexandria VA 25500:19:5422400:03:5523201:02:0612800:01:1719700:27:27 01:54:36 
22724038MMike ZaettaArlington VA 20300:17:1122900:03:5918300:57:4826100:02:4625800:33:07 01:54:49 
22836042MRaymond CruzSpringfield VA 24600:19:1713000:02:4424601:04:467300:01:0218500:27:02 01:54:49 
22910735MCorey RiordanMidlothian VA 7400:13:2421000:03:4225401:07:1814900:01:2222700:29:06 01:54:50 
23039051MMichael EllisonRockville MD 26200:21:3824500:04:2421401:00:4625100:02:1916100:26:00 01:55:04 
23126847MDario BarattoArlington VA 23900:18:4821100:03:4521901:00:5411500:01:1124000:30:32 01:55:08 
2329148MThomas PorterFredericksburg VA 14800:15:1921600:03:4722401:01:0710600:01:0826100:34:09 01:55:28 
23319664MJim VanceCulpeper VA 27100:23:336200:02:1319600:59:1122300:01:5522000:28:45 01:55:37 
23454851MJeff LindemanMcLean VA 15600:15:2925700:04:5124501:04:4522800:01:5822400:29:01 01:56:03 
23542032MJacob GaleAlexandria VA 23500:18:4521500:03:4624201:03:5023700:02:0121100:28:23 01:56:43 
23610650MRussell RiggsFalls Church VA 24800:19:2423700:04:1023801:02:4419600:01:4123100:29:09 01:57:07 
23714946MDavid SimmsArlington VA 26000:21:0520500:03:3522101:01:0113500:01:1823800:30:27 01:57:25 
23846651MGary HenryAshburn VA 22700:18:1924600:04:2721501:00:4912400:01:1525500:32:48 01:57:36 
2393549MJoe MeaneyDamascus MD 21200:17:4025600:04:4720700:59:5926000:02:4025400:32:37 01:57:41 
24059641MPeter BellevilleMarkham VA 24200:19:0314000:02:4918800:58:0811000:01:0924400:31:1900:06:0001:58:27 
24155231MChristopher LongLeesburg VA 24400:19:0625000:04:3623901:02:4621400:01:5023600:30:13 01:58:28 
2427934MAbraham ParkerSilver Spring MD 20600:17:2126600:05:2224001:03:2127100:03:4822200:28:53 01:58:43 
24331356MPatrick BroganNorfolk VA 8900:13:5323000:04:0025601:07:4623100:01:5924500:31:25 01:59:01 
24443262MStephen GoddardAlexandria VA 12000:14:4324400:04:2419800:59:2027300:04:1526900:36:31 01:59:10 
24551651MMicah KillionSpringfield VA 25000:19:2624800:04:3024901:05:5224000:02:0420000:27:34 01:59:24 
24660118MJay FolseVA 22600:18:0425400:04:4424101:03:2317100:01:2725100:32:11 01:59:47 
24719952MPeter ViglianoMontclair VA 25300:19:5216400:03:0326001:08:598400:01:0419100:27:18 02:00:14 
PlaceBibAgSNAMEcity/stateDQRankSWIMRankT1RankBIKERankT2RankRUNPENALTYTIMEDQ
24852853MChuck KozlowskiDavidsonville MD 26900:22:3423600:04:0620801:00:0226600:02:5624700:31:30 02:01:06 
2499035MBrad PooreCentreville VA 19100:16:4619700:03:2825301:07:123100:00:4925600:32:55 02:01:08 
25017217MForrest Neal StiegMcLean VA 22000:17:5523800:04:1426101:09:0220700:01:4621900:28:44 02:01:38 
25149551MEric JohnsonWashington DC 17300:15:4525800:04:5423301:02:0820600:01:4527000:37:29 02:02:00 
25249031MJeremy IsonArlington VA 14900:15:1924700:04:2926701:11:1712100:01:1320400:27:4600:02:0002:02:01 
2534045MJohn-Anthony MezaWashington DC 25100:19:3017100:03:0924801:05:4125400:02:1924600:31:28 02:02:05 
25421628MDenis WhelanWashington DC 20000:17:0020300:03:3325701:07:5023800:02:0425300:32:26 02:02:51 
25518230MRichard TaylorAshburn VA 24500:19:0926000:05:0421601:00:4919300:01:3926800:36:28 02:03:07 
25628748MTodd BertschAtlanta GA 25400:19:5415500:03:0026201:09:1726300:02:5321500:28:35 02:03:37 
2574628MRoss MontfortNewport News VA 27200:23:3421700:03:4926601:11:1311400:01:107800:22:2900:02:0002:04:14 
25839751MCarl FarquharSpringfield VA 26100:21:0523300:04:0527101:13:1025500:02:196100:21:5100:02:0002:04:28 
2591935MMark MasoneArlington VA 22300:17:5922700:03:5624701:05:2718600:01:3226400:35:44 02:04:37 
26016133MJoshua SoirezParkton MD 26300:21:3827300:08:0924401:04:0027400:04:4421000:28:08 02:06:37 
26146071MSkip HartquistWashington DC 24100:18:5725900:04:5725901:08:3218700:01:3326000:34:07 02:08:05 
2625236MJason MosleyAlexandria VA 26700:22:1415800:03:0026901:11:2523500:02:0023400:29:40 02:08:17 
26340060MTom FinnWoodbridge VA 23400:18:4127200:06:2825501:07:4527200:03:5725000:32:11 02:09:01 
26435861MAlonzo CrittendenHampton VA 19300:16:4825200:04:3824301:03:5326700:03:0227100:41:32 02:09:52 
26513066MFrank SaundersNewport News VA 18400:16:3227500:08:1325001:06:2227000:03:4326200:35:11 02:10:00 
26636837MDion DavitianFairfax VA 23300:18:3722100:03:5327501:18:4024700:02:1123900:30:30 02:13:49 
26730150MDonald BowlesFalls Church VA 27500:25:1326100:05:1125201:07:0310000:01:0626600:35:46 02:14:16 
26859712MIsaac BellevilleMarkham VA 26800:22:2322800:03:5826501:10:1424500:02:0825900:33:3700:02:0002:14:19 
2698736MThomas PickensPlano TX 27600:25:1627600:08:3925801:07:5325900:02:2824100:30:39 02:14:53 
27020048MKen WagnerBethesda MD 25700:20:2727100:06:1226301:09:3726900:03:1726500:35:44 02:15:16 
27117148MForrest StiegMcLean VA 26600:22:1323400:04:0526801:11:2025800:02:2826300:35:14 02:15:19 
27239832MRandolph FeltnerColonial Beach VA 27700:26:4926900:05:2825101:06:5314800:01:2127200:42:22 02:22:52 
27314769MDon ShultisBumpass VA 17200:15:4526200:05:1227301:15:3526500:02:5427300:43:29 02:22:53 
27454754MCarlos LiceagaNewport News VA 27800:29:1326400:05:1526401:09:4126400:02:5326700:36:11 02:23:10 
27550666MLevering KeelyKensington MD 27400:24:5826700:05:2827401:16:5625200:02:1927400:43:41 02:33:18 
27649950MJed KaneFairfax VA 27300:24:3215600:03:0027001:12:5124600:02:0922600:29:05NFDNF 
27750334MSidd KashyapFalls Church VA     27601:22:54    NF  
2782748MWayne McAllisterLeesburg VA 3800:12:10        NF  
PlaceBibAgSNAMEcity/stateDQRankSWIMRankT1RankBIKERankT2RankRUNPENALTYTIMEDQ
27923064MWilliam WrenArlington VA 2300:11:459300:02:30      NF  
28043569MBill GoodingMontclair VA 25800:20:3927000:05:5927201:14:19       
28124743MMichael Adams Jr.Virginia Beach VA 23800:18:47           

** Results are for the private use of participants and are the Intellectual Property of Set Up Events. Unauthorized use of these results is prohibited.